Time;durP1;ratioP1;P1;durP2;ratioP2;P2;SDS_P1;SDS_P2;PMS_P1;PMS_P2;Temp;Humidity;BMP_temperature;BMP_pressure;BME280_temperature;BME280_humidity;BME280_pressure;Samples;Min_cycle;Max_cycle;Signal;HPM_P1;HPM_P2
2021/07/29 00:01:52;;;;;;;29.05;22.35;;;25.20;76.70;;;;;;5056052;28;20029;-49
2021/07/29 00:04:18;;;;;;;29.35;23.27;;;25.20;76.80;;;;;;5055541;28;20033;-44
2021/07/29 00:06:43;;;;;;;32.75;26.02;;;25.20;77.40;;;;;;5055333;28;20029;-45
2021/07/29 00:09:09;;;;;;;29.15;24.17;;;25.20;76.90;;;;;;5055958;28;20060;-52
2021/07/29 00:11:35;;;;;;;33.05;23.88;;;25.20;77.00;;;;;;5054610;28;20317;-51
2021/07/29 00:14:01;;;;;;;27.38;23.35;;;25.20;77.20;;;;;;5055949;28;20333;-49
2021/07/29 00:16:30;;;;;;;33.00;25.77;;;25.10;77.20;;;;;;5055661;28;20040;-49
2021/07/29 00:19:05;;;;;;;30.90;23.80;;;25.10;77.20;;;;;;5055824;28;20416;-49
2021/07/29 00:21:32;;;;;;;34.97;23.92;;;25.10;77.20;;;;;;5055673;28;20124;-49
2021/07/29 00:23:58;;;;;;;33.75;23.15;;;25.10;77.30;;;;;;5055906;28;20029;-51
2021/07/29 00:26:24;;;;;;;31.17;23.58;;;25.10;77.40;;;;;;5055655;28;20097;-48
2021/07/29 00:28:49;;;;;;;28.42;21.77;;;25.00;77.40;;;;;;5055725;28;20036;-51
2021/07/29 00:31:15;;;;;;;27.90;23.33;;;25.00;77.40;;;;;;5055044;28;20069;-44
2021/07/29 00:33:40;;;;;;;28.00;22.33;;;25.00;77.50;;;;;;5055470;28;20037;-47
2021/07/29 00:36:06;;;;;;;30.10;23.88;;;24.90;77.60;;;;;;5055732;28;20424;-44
2021/07/29 00:38:33;;;;;;;31.20;23.80;;;24.90;77.80;;;;;;5055507;28;20049;-48
2021/07/29 00:40:59;;;;;;;33.03;25.75;;;25.00;78.00;;;;;;5055103;28;20029;-49
2021/07/29 00:43:25;;;;;;;37.85;25.27;;;24.90;78.00;;;;;;5055450;28;20044;-45
2021/07/29 00:45:51;;;;;;;34.35;24.23;;;24.90;78.10;;;;;;5055604;28;20021;-49
2021/07/29 00:48:19;;;;;;;29.08;23.40;;;24.90;78.20;;;;;;5055063;28;20021;-52
2021/07/29 00:50:45;;;;;;;26.10;22.88;;;24.80;78.30;;;;;;5055675;28;20034;-47
2021/07/29 00:53:10;;;;;;;27.33;22.48;;;24.80;78.30;;;;;;5055267;28;20037;-53
2021/07/29 00:55:36;;;;;;;28.75;23.48;;;24.80;78.40;;;;;;5055266;28;20033;-44
2021/07/29 00:58:02;;;;;;;28.70;22.67;;;24.80;78.40;;;;;;5055350;28;20094;-44
2021/07/29 01:00:28;;;;;;;36.03;24.00;;;24.70;78.50;;;;;;5055288;28;20108;-51
2021/07/29 01:02:53;;;;;;;30.23;22.10;;;24.70;78.50;;;;;;5055291;28;20036;-50
2021/07/29 01:05:20;;;;;;;30.85;22.02;;;24.70;78.50;;;;;;5054893;28;20031;-45
2021/07/29 01:07:46;;;;;;;30.17;22.63;;;24.70;78.50;;;;;;5055027;28;20028;-49
2021/07/29 01:10:12;;;;;;;27.23;21.88;;;24.70;78.60;;;;;;5054986;28;20484;-47
2021/07/29 01:12:37;;;;;;;28.02;21.38;;;24.60;78.40;;;;;;5055212;28;20037;-49
2021/07/29 01:15:04;;;;;;;27.58;21.65;;;24.60;78.60;;;;;;5055051;28;20029;-48
2021/07/29 01:17:32;;;;;;;31.02;23.63;;;24.60;78.60;;;;;;5054703;28;20040;-49
2021/07/29 01:19:58;;;;;;;27.17;20.70;;;24.60;78.60;;;;;;5054888;28;20040;-45
2021/07/29 01:22:31;;;;;;;23.83;19.77;;;24.60;78.50;;;;;;5054748;28;20122;-44
2021/07/29 01:24:57;;;;;;;27.13;20.50;;;24.60;78.50;;;;;;5058553;28;20029;-49
2021/07/29 01:27:22;;;;;;;26.27;21.92;;;24.60;78.50;;;;;;5058662;28;20313;-48
2021/07/29 01:29:48;;;;;;;28.42;20.90;;;24.60;78.50;;;;;;5058753;28;20021;-49
2021/07/29 01:32:14;;;;;;;30.02;21.00;;;24.60;78.40;;;;;;5058553;28;20032;-51
2021/07/29 01:34:40;;;;;;;26.33;20.88;;;24.60;78.40;;;;;;5058412;28;20040;-47
2021/07/29 01:37:06;;;;;;;29.55;22.58;;;24.60;78.40;;;;;;5058144;28;20029;-50
2021/07/29 01:39:32;;;;;;;29.15;22.08;;;24.60;78.50;;;;;;5058177;28;20044;-49
2021/07/29 01:41:58;;;;;;;26.48;21.77;;;24.60;78.50;;;;;;5058365;28;20025;-45
2021/07/29 01:44:23;;;;;;;30.35;22.45;;;24.50;78.60;;;;;;5058219;28;20040;-47
2021/07/29 01:46:50;;;;;;;29.02;22.77;;;24.50;78.60;;;;;;5057966;28;20032;-44
2021/07/29 01:49:21;;;;;;;31.80;23.13;;;24.50;78.70;;;;;;5058284;28;20025;-52
2021/07/29 01:51:48;;;;;;;38.08;22.83;;;24.50;78.90;;;;;;5058190;28;20306;-49
2021/07/29 01:54:15;;;;;;;26.50;22.60;;;24.40;78.80;;;;;;5058296;28;20033;-48
2021/07/29 01:56:41;;;;;;;32.15;22.17;;;24.40;79.00;;;;;;5058032;28;20036;-46
2021/07/29 01:59:07;;;;;;;32.25;21.80;;;24.40;79.00;;;;;;5058405;28;20033;-44
2021/07/29 02:01:33;;;;;;;25.80;21.13;;;24.40;79.10;;;;;;5058070;28;20340;-51
2021/07/29 02:03:58;;;;;;;27.80;21.98;;;24.40;79.10;;;;;;5058290;28;20032;-52
2021/07/29 02:06:24;;;;;;;27.42;22.52;;;24.30;79.20;;;;;;5058049;28;20025;-51
2021/07/29 02:08:50;;;;;;;30.52;21.70;;;24.30;79.20;;;;;;5057789;28;20120;-45
2021/07/29 02:11:16;;;;;;;27.58;22.77;;;24.30;79.30;;;;;;5057545;28;20147;-46
2021/07/29 02:13:41;;;;;;;28.23;22.85;;;24.30;79.30;;;;;;5058016;28;20036;-49
2021/07/29 02:16:11;;;;;;;26.45;22.50;;;24.30;79.50;;;;;;5057888;28;20029;-49
2021/07/29 02:18:37;;;;;;;33.00;23.13;;;24.20;79.50;;;;;;5057961;28;20083;-48
2021/07/29 02:21:06;;;;;;;30.17;22.27;;;24.20;79.60;;;;;;5057416;28;20029;-46
2021/07/29 02:23:32;;;;;;;31.02;21.70;;;24.20;79.70;;;;;;5058104;28;20463;-48
2021/07/29 02:25:58;;;;;;;30.52;22.15;;;24.20;79.80;;;;;;5057161;28;20065;-47
2021/07/29 02:28:23;;;;;;;29.95;22.65;;;24.20;79.80;;;;;;5057664;28;20099;-46
2021/07/29 02:30:49;;;;;;;31.55;22.80;;;24.10;79.90;;;;;;5057467;28;20414;-48
2021/07/29 02:33:14;;;;;;;32.33;24.13;;;24.10;79.80;;;;;;5057349;28;20037;-51
2021/07/29 02:35:40;;;;;;;33.78;23.85;;;24.10;79.90;;;;;;5056418;28;20387;-44
2021/07/29 02:38:06;;;;;;;32.25;21.65;;;24.10;79.90;;;;;;5057047;28;20037;-47
2021/07/29 02:40:31;;;;;;;30.83;23.23;;;24.10;79.90;;;;;;5057044;28;20033;-47
2021/07/29 02:42:57;;;;;;;27.08;22.63;;;24.10;80.00;;;;;;5057400;28;20107;-49
2021/07/29 02:45:22;;;;;;;36.88;25.33;;;24.10;80.00;;;;;;5057096;28;20040;-46
2021/07/29 02:47:48;;;;;;;29.70;22.58;;;24.00;80.10;;;;;;5056947;28;20028;-50
2021/07/29 02:50:14;;;;;;;28.02;21.90;;;24.00;80.10;;;;;;5055934;28;20033;-52
2021/07/29 02:52:41;;;;;;;26.67;20.83;;;24.00;80.10;;;;;;5056981;28;20037;-52
2021/07/29 02:55:07;;;;;;;27.65;21.30;;;24.00;80.20;;;;;;5056724;28;20123;-48
2021/07/29 02:57:33;;;;;;;29.23;21.13;;;23.90;80.30;;;;;;5057089;28;20158;-46
2021/07/29 02:59:59;;;;;;;22.02;19.48;;;24.00;80.40;;;;;;5057053;28;20118;-44
2021/07/29 03:02:25;;;;;;;23.50;20.63;;;24.00;80.40;;;;;;5056685;28;20025;-45
2021/07/29 03:04:50;;;;;;;25.90;21.80;;;24.00;80.40;;;;;;5056971;28;20044;-50
2021/07/29 03:07:16;;;;;;;26.02;21.05;;;24.00;80.50;;;;;;5056427;28;20031;-49
2021/07/29 03:09:42;;;;;;;35.20;25.02;;;24.00;80.40;;;;;;5056678;28;20040;-52
2021/07/29 03:12:07;;;;;;;30.27;21.17;;;24.00;80.40;;;;;;5056510;28;20033;-48
2021/07/29 03:14:33;;;;;;;26.33;20.25;;;24.00;80.30;;;;;;5056741;28;20083;-51
2021/07/29 03:16:58;;;;;;;27.85;20.90;;;24.00;80.30;;;;;;5056514;28;20329;-50
2021/07/29 03:19:24;;;;;;;38.08;22.55;;;24.10;80.30;;;;;;5056358;28;20037;-43
2021/07/29 03:21:50;;;;;;;24.77;19.40;;;24.10;80.30;;;;;;5056104;28;20025;-44
2021/07/29 03:24:15;;;;;;;25.98;21.38;;;24.10;80.20;;;;;;5056378;28;20029;-47
2021/07/29 03:26:41;;;;;;;27.35;19.52;;;24.10;80.30;;;;;;5056540;28;20425;-47
2021/07/29 03:29:06;;;;;;;26.42;19.85;;;24.10;80.20;;;;;;5056387;28;20313;-53
2021/07/29 03:31:34;;;;;;;26.40;19.17;;;24.10;80.00;;;;;;5056252;28;20061;-47
2021/07/29 03:33:59;;;;;;;26.73;18.63;;;24.20;80.10;;;;;;5056711;28;20029;-47
2021/07/29 03:36:25;;;;;;;29.88;20.48;;;24.20;80.00;;;;;;5056323;28;20233;-44
2021/07/29 03:38:51;;;;;;;35.72;22.60;;;24.30;79.90;;;;;;5055944;28;20048;-48
2021/07/29 03:41:16;;;;;;;21.80;18.60;;;24.30;79.90;;;;;;5055759;28;20504;-48
2021/07/29 03:43:42;;;;;;;25.50;18.77;;;24.40;79.70;;;;;;5055827;28;20029;-49
2021/07/29 03:46:09;;;;;;;23.58;18.35;;;24.40;79.80;;;;;;5055833;28;20425;-51
2021/07/29 03:48:35;;;;;;;40.55;30.85;;;24.40;79.90;;;;;;5056161;28;20029;-47
2021/07/29 03:51:00;;;;;;;31.92;21.35;;;24.50;79.60;;;;;;5055856;28;20029;-50
2021/07/29 03:53:26;;;;;;;28.25;20.25;;;24.50;79.30;;;;;;5054805;28;20036;-49
2021/07/29 03:55:51;;;;;;;27.55;19.90;;;24.60;79.20;;;;;;5056166;28;20061;-46
2021/07/29 03:58:17;;;;;;;30.95;21.08;;;24.60;78.70;;;;;;5055872;28;20090;-52
2021/07/29 04:00:43;;;;;;;26.00;19.95;;;24.70;79.20;;;;;;5056100;28;20056;-48
2021/07/29 04:03:08;;;;;;;27.73;22.48;;;24.70;78.50;;;;;;5055523;28;20033;-48
2021/07/29 04:05:35;;;;;;;24.52;20.35;;;24.80;78.30;;;;;;5055675;28;20021;-52
2021/07/29 04:08:00;;;;;;;30.80;19.55;;;24.80;78.10;;;;;;5055589;28;20079;-49
2021/07/29 04:10:26;;;;;;;22.85;19.60;;;24.80;78.10;;;;;;5055693;28;20033;-49
2021/07/29 04:12:51;;;;;;;23.55;19.27;;;24.90;78.00;;;;;;5055671;28;20071;-50
2021/07/29 04:15:17;;;;;;;24.98;18.60;;;24.90;77.70;;;;;;5055572;28;20120;-47
2021/07/29 04:17:43;;;;;;;21.00;18.55;;;25.00;77.50;;;;;;5055621;28;20061;-47
2021/07/29 04:20:09;;;;;;;24.30;20.17;;;25.00;77.20;;;;;;5055459;28;20029;-50
2021/07/29 04:22:35;;;;;;;26.48;19.38;;;25.10;77.30;;;;;;5055449;28;20060;-49
2021/07/29 04:25:00;;;;;;;24.30;19.83;;;25.20;77.20;;;;;;5055621;28;20029;-50
2021/07/29 04:27:26;;;;;;;26.88;18.45;;;25.20;77.00;;;;;;5054965;28;20033;-44
2021/07/29 04:29:52;;;;;;;21.83;18.15;;;25.30;76.90;;;;;;5055181;28;20044;-50
2021/07/29 04:32:20;;;;;;;26.98;18.42;;;25.40;76.70;;;;;;5055133;28;20033;-48
2021/07/29 04:34:46;;;;;;;26.65;19.25;;;25.40;76.70;;;;;;5054803;28;20112;-48
2021/07/29 04:37:12;;;;;;;30.17;21.70;;;25.50;76.50;;;;;;5055032;28;20382;-48
2021/07/29 04:39:41;;;;;;;36.58;24.77;;;25.60;76.20;;;;;;5054687;28;20064;-48
2021/07/29 04:42:08;;;;;;;29.67;19.63;;;25.60;76.50;;;;;;5054863;28;20032;-48
2021/07/29 04:44:33;;;;;;;23.20;18.75;;;25.70;75.70;;;;;;5055273;28;20029;-49
2021/07/29 04:46:59;;;;;;;25.85;17.40;;;25.80;75.40;;;;;;5054998;28;20435;-44
2021/07/29 04:49:24;;;;;;;22.85;17.23;;;25.80;75.00;;;;;;5054892;28;20025;-44
2021/07/29 04:51:50;;;;;;;18.70;16.10;;;25.80;75.10;;;;;;5054972;28;20028;-47
2021/07/29 04:54:16;;;;;;;19.95;16.85;;;25.90;74.30;;;;;;5054918;28;20051;-50
2021/07/29 04:56:41;;;;;;;27.90;17.13;;;26.00;74.10;;;;;;5054517;28;20398;-48
2021/07/29 04:59:07;;;;;;;27.83;16.85;;;26.10;73.80;;;;;;5057490;28;20033;-45
2021/07/29 05:01:36;;;;;;;28.77;20.60;;;26.10;73.70;;;;;;5058315;28;20029;-51
2021/07/29 05:04:02;;;;;;;27.13;21.58;;;26.20;73.50;;;;;;5059235;28;20033;-45
2021/07/29 05:06:28;;;;;;;28.55;22.60;;;26.20;73.20;;;;;;5058451;28;20474;-51
2021/07/29 05:08:54;;;;;;;27.33;19.30;;;26.30;73.20;;;;;;5059081;28;20033;-48
2021/07/29 05:11:19;;;;;;;22.55;17.33;;;26.40;73.20;;;;;;5058629;28;20029;-53
2021/07/29 05:13:45;;;;;;;22.83;17.30;;;26.50;73.20;;;;;;5059007;28;20155;-50
2021/07/29 05:16:11;;;;;;;24.13;17.30;;;26.50;72.90;;;;;;5058623;28;20405;-49
2021/07/29 05:18:37;;;;;;;27.60;17.23;;;26.60;72.90;;;;;;5058821;28;20116;-48
2021/07/29 05:21:04;;;;;;;26.65;17.85;;;26.60;72.70;;;;;;5058443;28;20025;-43
2021/07/29 05:23:30;;;;;;;21.85;17.05;;;26.70;72.50;;;;;;5058695;28;20035;-50
2021/07/29 05:25:56;;;;;;;29.98;18.40;;;26.80;72.50;;;;;;5058046;28;20108;-49
2021/07/29 05:28:21;;;;;;;28.58;18.67;;;26.90;72.40;;;;;;5058108;28;20342;-47
2021/07/29 05:30:47;;;;;;;24.17;17.35;;;26.90;72.30;;;;;;5058456;28;20073;-48
2021/07/29 05:33:13;;;;;;;23.92;17.63;;;27.00;72.00;;;;;;5058134;28;20364;-48
2021/07/29 05:35:39;;;;;;;25.30;18.15;;;27.10;71.90;;;;;;5058480;28;20059;-51
2021/07/29 05:38:04;;;;;;;22.63;17.52;;;27.10;71.80;;;;;;5058136;28;20760;-45
2021/07/29 05:40:30;;;;;;;20.42;17.70;;;27.20;71.70;;;;;;5058251;28;20037;-52
2021/07/29 05:42:56;;;;;;;22.98;18.95;;;27.20;71.30;;;;;;5058096;28;20120;-47
2021/07/29 05:45:21;;;;;;;29.60;19.50;;;27.30;71.20;;;;;;5058084;28;20032;-50
2021/07/29 05:47:47;;;;;;;25.67;18.05;;;27.40;71.10;;;;;;5058237;28;20033;-47
2021/07/29 05:50:13;;;;;;;19.27;15.45;;;27.40;70.50;;;;;;5058093;28;20117;-47
2021/07/29 05:52:38;;;;;;;22.45;15.90;;;27.50;70.60;;;;;;5057900;28;20036;-48
2021/07/29 05:55:04;;;;;;;22.80;16.52;;;27.60;70.30;;;;;;5057863;28;20036;-49
2021/07/29 05:57:32;;;;;;;27.45;14.85;;;27.60;69.50;;;;;;5057762;28;20040;-47
2021/07/29 05:59:58;;;;;;;20.83;14.82;;;27.70;68.60;;;;;;5057893;28;20130;-45
2021/07/29 06:02:23;;;;;;;18.95;14.38;;;27.80;68.40;;;;;;5057772;28;20488;-45
2021/07/29 06:04:49;;;;;;;22.17;14.48;;;27.80;68.40;;;;;;5057850;28;20029;-49
2021/07/29 06:07:14;;;;;;;20.13;14.07;;;27.90;69.50;;;;;;5057474;28;20317;-50
2021/07/29 06:09:40;;;;;;;23.00;16.13;;;28.00;69.60;;;;;;5057827;28;20040;-46
2021/07/29 06:12:06;;;;;;;18.10;15.05;;;28.00;69.50;;;;;;5057482;28;20032;-48
2021/07/29 06:14:32;;;;;;;20.45;14.00;;;28.10;69.60;;;;;;5057629;28;20036;-48
2021/07/29 06:16:57;;;;;;;18.13;14.48;;;28.20;69.30;;;;;;5057634;28;20031;-47
2021/07/29 06:19:29;;;;;;;20.10;14.25;;;28.20;69.00;;;;;;5057500;28;20049;-47
2021/07/29 06:21:59;;;;;;;20.33;14.13;;;28.20;68.60;;;;;;5057416;28;20029;-50
2021/07/29 06:24:26;;;;;;;19.50;14.70;;;28.30;68.10;;;;;;5057428;28;20313;-44
2021/07/29 06:26:52;;;;;;;17.67;14.57;;;28.30;68.30;;;;;;5056937;28;20413;-47
2021/07/29 06:29:18;;;;;;;17.73;13.18;;;28.40;67.80;;;;;;5056949;28;20041;-49
2021/07/29 06:31:44;;;;;;;20.15;14.02;;;28.50;67.90;;;;;;5056820;28;20040;-49
2021/07/29 06:34:10;;;;;;;18.40;14.70;;;28.50;67.90;;;;;;5057177;28;20120;-46
2021/07/29 06:36:35;;;;;;;18.17;14.43;;;28.50;67.90;;;;;;5057166;28;20286;-47
2021/07/29 06:39:01;;;;;;;21.50;18.27;;;28.60;68.20;;;;;;5056839;28;20103;-48
2021/07/29 06:41:27;;;;;;;23.45;15.05;;;28.60;68.10;;;;;;5056519;28;20089;-46
2021/07/29 06:43:53;;;;;;;17.45;15.05;;;28.70;68.50;;;;;;5055822;28;20100;-45
2021/07/29 06:46:19;;;;;;;23.35;14.48;;;28.70;68.10;;;;;;5056891;28;20037;-47
2021/07/29 06:48:44;;;;;;;17.42;14.25;;;28.80;68.20;;;;;;5057094;28;20070;-46
2021/07/29 06:51:10;;;;;;;20.02;14.27;;;28.90;67.80;;;;;;5056475;28;20055;-47
2021/07/29 06:53:37;;;;;;;23.63;17.88;;;28.90;67.60;;;;;;5056952;28;20112;-47
2021/07/29 06:56:04;;;;;;;20.85;15.70;;;28.90;67.50;;;;;;5056375;28;20035;-47
2021/07/29 06:58:29;;;;;;;19.52;16.40;;;29.00;67.60;;;;;;5055414;28;20110;-50
2021/07/29 07:00:56;;;;;;;24.10;16.80;;;29.00;67.10;;;;;;5056379;28;20091;-51
2021/07/29 07:03:21;;;;;;;20.60;14.48;;;29.00;67.40;;;;;;5056645;28;20036;-45
2021/07/29 07:05:47;;;;;;;30.95;22.33;;;29.10;66.60;;;;;;5056711;28;20432;-47
2021/07/29 07:08:14;;;;;;;25.63;16.98;;;29.10;67.00;;;;;;5056386;28;20119;-51
2021/07/29 07:10:40;;;;;;;19.05;14.00;;;29.10;66.80;;;;;;5056544;28;20029;-44
2021/07/29 07:13:06;;;;;;;20.77;15.25;;;29.10;66.30;;;;;;5056258;28;20090;-49
2021/07/29 07:15:32;;;;;;;23.27;14.40;;;29.20;66.30;;;;;;5056336;28;20039;-46
2021/07/29 07:17:58;;;;;;;17.75;14.02;;;29.20;66.50;;;;;;5056167;28;20044;-45
2021/07/29 07:20:24;;;;;;;17.38;14.45;;;29.20;66.30;;;;;;5055857;28;20029;-47
2021/07/29 07:22:51;;;;;;;19.85;13.57;;;29.20;65.80;;;;;;5055887;28;20040;-48
2021/07/29 07:25:17;;;;;;;16.92;12.32;;;29.30;65.70;;;;;;5055980;28;20035;-47
2021/07/29 07:27:42;;;;;;;20.50;14.10;;;29.30;65.20;;;;;;5056100;28;20036;-44
2021/07/29 07:30:09;;;;;;;25.48;18.02;;;29.30;65.80;;;;;;5055812;28;20448;-48
2021/07/29 07:32:35;;;;;;;32.33;20.70;;;29.40;66.40;;;;;;5056009;28;20039;-48
2021/07/29 07:35:01;;;;;;;36.78;27.02;;;29.40;66.30;;;;;;5055785;28;20033;-46
2021/07/29 07:37:27;;;;;;;20.35;14.60;;;29.50;66.00;;;;;;5055644;28;20436;-47
2021/07/29 07:39:53;;;;;;;28.50;18.90;;;29.50;64.70;;;;;;5055443;28;20057;-49
2021/07/29 07:42:18;;;;;;;26.08;14.70;;;29.50;64.70;;;;;;5055517;28;20048;-47
2021/07/29 07:44:44;;;;;;;25.25;14.48;;;29.60;64.20;;;;;;5055550;28;20322;-47
2021/07/29 07:47:09;;;;;;;34.15;16.95;;;29.60;63.40;;;;;;5055393;28;20100;-50
2021/07/29 07:49:35;;;;;;;26.33;13.73;;;29.70;63.10;;;;;;5054810;28;20040;-46
2021/07/29 07:52:01;;;;;;;19.17;14.40;;;29.80;62.20;;;;;;5055136;28;20036;-49
2021/07/29 07:54:26;;;;;;;18.60;13.43;;;29.80;61.60;;;;;;5055381;28;20029;-47
2021/07/29 07:56:52;;;;;;;27.70;14.45;;;29.90;61.40;;;;;;5055472;28;20405;-51
2021/07/29 07:59:18;;;;;;;25.20;13.30;;;29.90;61.30;;;;;;5055364;28;20029;-48
2021/07/29 08:01:44;;;;;;;23.08;13.35;;;30.00;61.80;;;;;;5049318;28;20393;-50
2021/07/29 08:04:10;;;;;;;26.48;14.98;;;30.00;61.60;;;;;;5054890;28;20142;-47
2021/07/29 08:06:37;;;;;;;24.65;14.85;;;30.10;61.30;;;;;;5055000;28;20279;-47
2021/07/29 08:09:03;;;;;;;27.27;16.75;;;30.20;61.20;;;;;;5055378;28;20036;-46
2021/07/29 08:11:29;;;;;;;31.33;16.10;;;30.20;61.10;;;;;;5054849;28;20096;-46
2021/07/29 08:13:55;;;;;;;26.45;14.27;;;30.20;61.00;;;;;;5055264;28;20040;-49
2021/07/29 08:16:21;;;;;;;26.30;14.75;;;30.30;61.20;;;;;;5054561;28;20032;-48
2021/07/29 08:18:46;;;;;;;21.13;15.20;;;30.30;61.60;;;;;;5055428;28;20436;-51
2021/07/29 08:21:12;;;;;;;25.20;17.23;;;30.40;61.70;;;;;;5054682;28;20106;-44
2021/07/29 08:23:39;;;;;;;30.58;18.23;;;30.50;61.90;;;;;;5055167;28;20033;-48
2021/07/29 08:26:07;;;;;;;18.15;14.63;;;30.60;61.20;;;;;;5055147;28;20048;-48
2021/07/29 08:28:33;;;;;;;28.90;13.27;;;30.60;60.70;;;;;;5055304;28;20462;-47
2021/07/29 08:30:59;;;;;;;22.00;13.70;;;30.70;60.10;;;;;;5054884;28;20340;-47
2021/07/29 08:33:24;;;;;;;29.35;12.90;;;30.80;59.40;;;;;;5056345;28;20042;-48
2021/07/29 08:35:50;;;;;;;38.58;21.73;;;30.80;60.10;;;;;;5058759;28;20033;-49
2021/07/29 08:38:15;;;;;;;21.70;14.82;;;30.80;59.70;;;;;;5059171;28;20053;-48
2021/07/29 08:40:41;;;;;;;18.60;13.63;;;30.90;59.80;;;;;;5058704;28;20029;-48
2021/07/29 08:43:07;;;;;;;27.73;13.45;;;31.00;59.20;;;;;;5058647;28;20033;-44
2021/07/29 08:45:41;;;;;;;24.13;11.43;;;31.00;59.40;;;;;;5058995;28;20052;-45
2021/07/29 08:48:10;;;;;;;27.13;11.43;;;31.10;58.00;;;;;;5058966;28;20087;-48
2021/07/29 08:50:36;;;;;;;26.00;14.18;;;31.10;57.20;;;;;;5058777;28;20321;-49
2021/07/29 08:53:01;;;;;;;21.98;11.82;;;31.20;56.90;;;;;;5058836;28;20115;-50
2021/07/29 08:55:27;;;;;;;22.75;11.23;;;31.20;56.50;;;;;;5058579;28;20056;-50
2021/07/29 08:57:53;;;;;;;22.08;12.52;;;31.30;56.00;;;;;;5058854;28;20086;-50
2021/07/29 09:00:18;;;;;;;21.63;12.55;;;31.40;56.50;;;;;;5058299;28;20029;-47
2021/07/29 09:02:44;;;;;;;20.75;13.57;;;31.40;56.40;;;;;;5057361;28;20413;-47
2021/07/29 09:05:18;;;;;;;16.65;11.70;;;31.60;55.70;;;;;;5058357;28;20033;-49
2021/07/29 09:08:04;;;;;;;20.60;11.82;;;31.60;55.70;;;;;;5058559;28;20033;-47
2021/07/29 09:10:31;;;;;;;16.48;11.20;;;31.60;54.90;;;;;;5058385;28;20047;-48
2021/07/29 09:13:17;;;;;;;16.75;10.55;;;31.70;54.60;;;;;;5058335;28;20025;-50
2021/07/29 09:16:06;;;;;;;17.67;10.80;;;31.70;53.40;;;;;;5055380;28;20044;-48
2021/07/29 09:18:35;;;;;;;13.57;7.60;;;31.80;52.70;;;;;;5058506;28;20033;-46
2021/07/29 09:21:12;;;;;;;14.25;6.82;;;31.70;50.30;;;;;;5058000;28;20340;-46
2021/07/29 09:23:37;;;;;;;15.80;8.68;;;31.70;49.20;;;;;;5058333;28;20107;-50
2021/07/29 09:26:03;;;;;;;16.05;7.95;;;31.80;48.90;;;;;;5057213;28;20072;-46
2021/07/29 09:28:32;;;;;;;17.90;9.00;;;31.80;48.50;;;;;;5058283;28;20024;-46
2021/07/29 09:30:58;;;;;;;9.45;6.10;;;31.90;48.30;;;;;;5058172;28;20133;-44
2021/07/29 09:33:24;;;;;;;12.50;7.60;;;31.90;47.80;;;;;;5057841;28;20098;-46
2021/07/29 09:35:52;;;;;;;12.70;7.28;;;32.00;47.80;;;;;;5058026;28;20111;-48
2021/07/29 09:38:27;;;;;;;10.98;7.43;;;32.10;46.80;;;;;;5057641;28;20041;-48
2021/07/29 09:41:02;;;;;;;15.18;9.18;;;32.20;47.00;;;;;;5057300;28;20060;-47
2021/07/29 09:43:37;;;;;;;14.88;7.80;;;32.30;47.30;;;;;;5057876;28;20075;-46
2021/07/29 09:46:17;;;;;;;18.00;7.80;;;32.30;47.20;;;;;;5057373;28;20448;-44
2021/07/29 09:48:43;;;;;;;;;;;32.40;47.20;;;;;;5058584;28;20115;-44
2021/07/29 09:51:10;;;;;;;12.23;6.97;;;32.40;48.00;;;;;;5057405;28;20000;-47
2021/07/29 09:53:36;;;;;;;11.50;6.15;;;32.50;46.90;;;;;;5057666;28;20029;-46
2021/07/29 09:56:09;;;;;;;13.52;6.60;;;32.50;47.10;;;;;;5057063;28;20115;-47
2021/07/29 09:58:35;;;;;;;21.73;7.40;;;32.50;47.10;;;;;;5057986;28;20029;-45
2021/07/29 10:01:02;;;;;;;16.83;6.70;;;32.60;47.40;;;;;;5055697;28;20029;-44
2021/07/29 10:03:30;;;;;;;13.68;6.32;;;32.60;47.20;;;;;;5057301;28;20059;-49
2021/07/29 10:06:04;;;;;;;15.85;6.97;;;32.70;47.20;;;;;;5056754;28;20432;-47
2021/07/29 10:08:36;;;;;;;13.38;7.00;;;32.70;47.20;;;;;;5057597;28;20022;-45
2021/07/29 10:11:07;;;;;;;11.57;8.02;;;32.60;47.80;;;;;;5057121;28;20032;-47
2021/07/29 10:13:37;;;;;;;24.05;7.40;;;32.60;47.90;;;;;;5057654;28;20056;-49
2021/07/29 10:16:05;;;;;;;12.57;7.10;;;32.60;48.00;;;;;;5056974;28;20033;-47
2021/07/29 10:18:55;;;;;;;13.88;6.43;;;32.50;48.10;;;;;;5057495;28;20029;-46
2021/07/29 10:21:29;;;;;;;13.90;6.80;;;32.50;47.80;;;;;;5056341;28;20379;-48
2021/07/29 10:23:58;;;;;;;11.57;6.65;;;32.40;47.60;;;;;;5057604;28;20486;-45
2021/07/29 10:26:27;;;;;;;15.93;6.72;;;32.30;47.60;;;;;;5056592;28;20033;-46
2021/07/29 10:29:19;;;;;;;12.27;6.05;;;32.30;47.40;;;;;;5056527;28;20082;-47
2021/07/29 10:31:53;;;;;;;15.75;8.80;;;32.30;48.00;;;;;;5056519;28;20033;-46
2021/07/29 10:34:34;;;;;;;12.15;7.68;;;32.40;48.10;;;;;;5057237;28;20037;-47
2021/07/29 10:37:08;;;;;;;14.27;6.32;;;32.40;47.40;;;;;;5056611;28;20325;-47
2021/07/29 10:40:00;;;;;;;13.63;6.68;;;32.50;47.60;;;;;;5056643;28;20053;-49
2021/07/29 10:42:27;;;;;;;12.35;6.43;;;32.60;47.80;;;;;;5056408;28;20025;-48
2021/07/29 10:44:53;;;;;;;18.13;7.82;;;32.60;47.50;;;;;;5056687;28;20017;-45
2021/07/29 10:47:42;;;;;;;13.52;9.55;;;32.70;47.70;;;;;;5056484;28;20057;-48
2021/07/29 10:50:12;;;;;;;12.10;7.07;;;32.80;47.00;;;;;;5056450;28;20086;-46
2021/07/29 10:52:38;;;;;;;11.00;5.85;;;32.80;46.80;;;;;;5056418;28;20107;-47
2021/07/29 10:55:08;;;;;;;13.32;6.80;;;32.90;46.10;;;;;;5056697;28;20121;-46
2021/07/29 10:57:33;;;;;;;15.65;6.88;;;33.00;46.10;;;;;;5055613;28;20039;-48
2021/07/29 11:00:00;;;;;;;12.00;7.00;;;32.90;46.40;;;;;;5056353;28;20037;-47
2021/07/29 11:02:53;;;;;;;12.57;5.65;;;33.00;46.20;;;;;;5056314;28;20064;-46
2021/07/29 11:05:27;;;;;;;10.40;5.13;;;33.10;45.30;;;;;;5055628;28;20409;-49
2021/07/29 11:07:53;;;;;;;14.23;5.40;;;33.20;44.60;;;;;;5056596;28;20252;-48
2021/07/29 11:10:26;;;;;;;12.35;6.00;;;33.30;44.20;;;;;;5056027;28;20087;-46
2021/07/29 11:12:52;;;;;;;13.70;4.93;;;33.30;44.20;;;;;;5056218;28;20435;-47
2021/07/29 11:15:18;;;;;;;10.10;4.70;;;33.40;43.90;;;;;;5054610;28;20033;-49
2021/07/29 11:17:44;;;;;;;11.57;4.22;;;33.40;42.90;;;;;;5056380;28;20035;-47
2021/07/29 11:20:10;;;;;;;10.80;4.72;;;33.50;42.30;;;;;;5056068;28;20029;-45
2021/07/29 11:22:44;;;;;;;7.15;3.88;;;33.50;41.90;;;;;;5055989;28;20476;-45
2021/07/29 11:25:11;;;;;;;12.23;4.03;;;33.60;42.00;;;;;;5056089;28;20040;-47
2021/07/29 11:27:37;;;;;;;18.77;4.63;;;33.60;41.20;;;;;;5055951;28;20048;-46
2021/07/29 11:30:03;;;;;;;10.88;4.78;;;33.60;40.90;;;;;;5056110;28;20229;-46
2021/07/29 11:32:33;;;;;;;9.90;5.18;;;33.70;40.90;;;;;;5055832;28;20035;-45
2021/07/29 11:34:59;;;;;;;9.70;4.15;;;33.80;40.40;;;;;;5056184;28;20036;-49
2021/07/29 11:37:35;;;;;;;10.27;4.70;;;33.90;40.80;;;;;;5056082;28;20029;-47
2021/07/29 11:40:01;;;;;;;10.95;3.85;;;34.00;40.60;;;;;;5055457;28;20053;-46
2021/07/29 11:42:54;;;;;;;14.48;4.03;;;34.00;40.20;;;;;;5055584;28;20057;-46
2021/07/29 11:45:21;;;;;;;12.50;4.32;;;34.10;40.40;;;;;;5055350;28;20045;-46
2021/07/29 11:47:47;;;;;;;9.23;4.05;;;34.20;40.40;;;;;;5055780;28;20402;-47
2021/07/29 11:50:12;;;;;;;8.30;4.13;;;34.30;40.40;;;;;;5055831;28;20084;-48
2021/07/29 11:52:53;;;;;;;8.63;4.40;;;34.50;40.00;;;;;;5055546;28;20021;-49
2021/07/29 11:55:21;;;;;;;8.15;4.25;;;34.60;39.40;;;;;;5055310;28;20302;-47
2021/07/29 11:57:47;;;;;;;13.43;3.78;;;34.60;39.80;;;;;;5055147;28;20364;-46
2021/07/29 12:00:16;;;;;;;9.65;4.60;;;34.80;38.70;;;;;;5055770;28;20307;-49
2021/07/29 12:02:42;;;;;;;7.95;4.13;;;34.90;38.60;;;;;;5055318;28;20029;-47
2021/07/29 12:05:09;;;;;;;8.25;4.00;;;34.90;38.20;;;;;;5055547;28;20063;-48
2021/07/29 12:07:36;;;;;;;11.50;4.70;;;35.10;38.00;;;;;;5055321;28;20478;-45
2021/07/29 12:10:03;;;;;;;11.38;4.45;;;35.20;38.00;;;;;;5055106;28;20040;-49
2021/07/29 12:12:30;;;;;;;7.85;3.83;;;35.20;37.80;;;;;;5055668;28;20036;-47
2021/07/29 12:14:57;;;;;;;12.15;5.15;;;35.30;38.10;;;;;;5055622;28;20108;-47
2021/07/29 12:17:23;;;;;;;19.98;7.70;;;35.50;38.10;;;;;;5055053;28;20043;-46
2021/07/29 12:19:58;;;;;;;14.77;4.57;;;35.60;38.10;;;;;;5055676;28;20036;-46
2021/07/29 12:22:27;;;;;;;9.23;4.13;;;35.70;38.00;;;;;;5055047;28;20036;-47
2021/07/29 12:24:55;;;;;;;14.43;4.32;;;35.80;37.70;;;;;;5055337;28;20108;-47
2021/07/29 12:27:20;;;;;;;16.13;4.15;;;35.90;37.60;;;;;;5055016;28;20021;-46
2021/07/29 12:29:47;;;;;;;16.33;4.70;;;36.00;37.20;;;;;;5054846;28;20029;-47
2021/07/29 12:32:24;;;;;;;8.40;4.35;;;36.10;37.30;;;;;;5055010;28;20044;-47